Tropical Cyclones
[Index]
Main Index Home Page Stock Weather Photos Extreme Storms Discussion Storm News and Storm Chasing Reports Tropical Cyclones / Hurricanes / Typhoons Weather Data and Links Wild Fires / Bushfires Weather Observation Techniques Weather Picture Catalogue Tornado Pictures and Reports Stock Video Footage and DVDs for sale
Season 1959-1960 Tropical Cyclone 195960_01 Track Map
Season 1959-1960 Summaries: [BoM-AU] [JTWC-AU] [JTWC-SIO] [JTWC-SPAC] [JTWC-SH]
<<- Previous TC | BoM 1959-1960 Season | Next TC ->>

click for intensity scale information  Lat/long Grid: Show Hide

 Date Labels: Show Hide

Bureau of Meteorology Tropical Cyclone Data

Name: 195960_01
Number: 322 / 195960_01

19 Dec 1959 23:00 UTC to 27 Dec 1959 23:00 UTC

    date/time    lat    long    hPa   cat  kts
1959-12-19 23    6.0   156.5    999                     
1959-12-20 11    7.0   156.3    999                     
1959-12-20 17    7.3   156.0    999                     
1959-12-20 23    7.7   155.7    999                     
1959-12-21 05    8.3   155.5    997                     
1959-12-21 11    8.6   155.4    997                     
1959-12-21 23    9.2   155.7    996                     
1959-12-22 11   10.0   156.3    995    1                
1959-12-22 23   11.0   157.0    994    1                
1959-12-23 05   11.5   157.5    992    1                
1959-12-23 11   11.9   158.1    992    1                
1959-12-23 23   12.7   159.3    992    1                
1959-12-24 11   13.2   160.3    990    1                
1959-12-24 23   13.8   161.2    990    1                
1959-12-25 11   14.0   161.9    990    1                
1959-12-25 23   14.7   162.6    990    1                
1959-12-26 11   15.3   163.2    990    1                
1959-12-26 23   16.3   163.9    990    1                
1959-12-27 11   17.3   164.3    990    1                
1959-12-27 23   18.2   165.3    988    1                
Winds are 10-min average.

Tropical cyclone tracks developed by Michael Bath using data from the Bureau of Meteorology and Google Maps.


[Australian Severe Weather index] [Copyright Notice] [Email Contacts] [Search This Site] [Privacy Policy]
Document: tropical_cyclone_195960_01.htm Updated: 30 May 2013